Terminal Aerodrome Forecast
Issued by NWS

Home | Current Version | Previous Version | Text Only | Print | Product List | Glossary On
Versions: 1 2 3 4 5 6 7 8 9 10 11 12 13 14 15 16
000
FTUS45 KVEF 221700
TAFBIH
TAF
KBIH 221723Z 2218/2318 16011G18KT P6SM SKC
     FM230100 16008KT P6SM SKC
     FM230900 32006KT P6SM SKC=

USA.gov is the U.S. government's official web portal to all federal, state and local government web resources and services.